createdAt,value
2022-09-28T00:00:11.338Z,7.12
2022-09-28T00:02:44.642Z,7.11
2022-09-28T00:05:22.471Z,7.11
2022-09-28T00:07:51.974Z,7.05
2022-09-28T00:10:26.670Z,7.10
2022-09-28T00:13:04.607Z,7.09
2022-09-28T00:15:35.680Z,7.10
2022-09-28T00:18:03.690Z,7.08
2022-09-28T00:20:30.576Z,7.09
2022-09-28T00:23:00.030Z,7.08
2022-09-28T00:25:30.197Z,7.07
2022-09-28T00:28:05.578Z,7.07
2022-09-28T00:30:32.450Z,7.06
2022-09-28T00:33:03.589Z,7.05
2022-09-28T00:35:32.432Z,7.03
2022-09-28T00:37:59.301Z,7.03
2022-09-28T00:40:28.934Z,7.03
2022-09-28T00:42:56.600Z,7.02
2022-09-28T00:45:32.039Z,7.00
2022-09-28T00:48:00.467Z,6.99
2022-09-28T00:50:38.651Z,6.98
2022-09-28T00:53:37.251Z,6.97
2022-09-28T00:56:20.759Z,6.86
2022-09-28T00:59:17.384Z,6.93
2022-09-28T01:01:51.625Z,6.93
2022-09-28T01:04:20.423Z,6.91
2022-09-28T01:06:59.139Z,6.89
2022-09-28T01:09:55.497Z,6.89
2022-09-28T01:12:24.097Z,6.87
2022-09-28T01:14:53.166Z,6.83
2022-09-28T01:17:30.668Z,6.80
2022-09-28T01:20:26.184Z,6.79
2022-09-28T01:23:42.100Z,6.77
2022-09-28T01:26:27.693Z,6.76
2022-09-28T01:29:03.260Z,6.75
2022-09-28T01:31:41.750Z,6.75
2022-09-28T01:34:43.204Z,6.75
2022-09-28T01:37:35.061Z,6.74
2022-09-28T01:40:05.964Z,6.72
2022-09-28T01:42:37.084Z,6.72
2022-09-28T01:45:38.509Z,6.69
2022-09-28T01:48:14.231Z,6.69
2022-09-28T01:50:49.367Z,6.67
2022-09-28T01:53:51.810Z,6.68
2022-09-28T01:56:42.753Z,6.67
2022-09-28T01:59:43.168Z,6.66
2022-09-28T02:02:39.527Z,6.67
2022-09-28T02:05:42.789Z,6.67
2022-09-28T02:08:53.365Z,6.65
2022-09-28T02:11:32.243Z,6.65
2022-09-28T02:14:07.448Z,6.65
2022-09-28T02:17:08.697Z,6.65
2022-09-28T02:19:37.460Z,6.62
2022-09-28T02:22:42.732Z,6.64
2022-09-28T02:25:35.497Z,6.63
2022-09-28T02:28:28.787Z,6.63
2022-09-28T02:31:04.189Z,6.63
2022-09-28T02:34:02.979Z,6.62
2022-09-28T02:39:19.249Z,6.61
2022-09-28T02:42:36.200Z,6.61
2022-09-28T02:45:20.493Z,6.60
2022-09-28T02:48:27.180Z,6.60
2022-09-28T02:51:06.376Z,6.60
2022-09-28T02:54:09.312Z,6.61
2022-09-28T02:57:14.491Z,6.60
2022-09-28T02:59:50.677Z,6.60
2022-09-28T03:02:37.899Z,6.59
2022-09-28T03:05:19.994Z,6.57
2022-09-28T03:08:13.675Z,6.57
2022-09-28T03:10:55.749Z,6.57
2022-09-28T03:13:23.781Z,6.56
2022-09-28T03:15:50.593Z,6.56
2022-09-28T03:18:22.779Z,6.57
2022-09-28T03:21:06.894Z,6.57
2022-09-28T03:23:41.650Z,6.56
2022-09-28T03:26:42.987Z,6.57
2022-09-28T03:29:15.851Z,6.58
2022-09-28T03:31:49.091Z,6.55
2022-09-28T03:34:16.105Z,6.52
2022-09-28T03:36:43.122Z,6.58
2022-09-28T03:39:10.132Z,6.57
2022-09-28T03:41:37.017Z,6.56
2022-09-28T03:44:03.967Z,6.58
2022-09-28T03:46:35.429Z,6.57
2022-09-28T03:49:03.769Z,6.56
2022-09-28T03:51:30.712Z,6.56
2022-09-28T03:53:57.664Z,6.55
2022-09-28T03:56:30.210Z,6.58
2022-09-28T03:59:06.251Z,6.58
2022-09-28T04:01:39.666Z,6.59
2022-09-28T04:04:14.668Z,6.53
2022-09-28T04:06:46.955Z,6.57
2022-09-28T04:09:16.977Z,6.53
2022-09-28T04:14:29.875Z,6.55
2022-09-28T04:16:57.274Z,6.52
2022-09-28T04:19:25.830Z,6.54
2022-09-28T04:22:04.508Z,6.56
2022-09-28T04:24:34.949Z,6.57
2022-09-28T04:27:21.962Z,6.56
2022-09-28T04:29:54.504Z,6.60
2022-09-28T04:32:22.178Z,6.60
2022-09-28T04:34:49.040Z,6.59
2022-09-28T04:37:16.069Z,6.60
2022-09-28T04:39:47.480Z,6.58
2022-09-28T04:42:15.883Z,6.57
2022-09-28T04:44:42.741Z,6.57
2022-09-28T04:47:10.077Z,6.56
2022-09-28T04:49:38.451Z,6.56
2022-09-28T04:52:06.149Z,6.55
2022-09-28T04:54:33.122Z,6.54
2022-09-28T04:57:00.064Z,6.54
2022-09-28T04:59:27.048Z,6.55
2022-09-28T05:01:54.270Z,6.54
2022-09-28T05:04:25.575Z,6.52
2022-09-28T05:06:52.887Z,6.56
2022-09-28T05:09:19.904Z,6.53
2022-09-28T05:11:49.466Z,6.55
2022-09-28T05:14:16.794Z,6.53
2022-09-28T05:16:44.827Z,6.51
2022-09-28T05:19:12.509Z,6.54
2022-09-28T05:21:39.455Z,6.51
2022-09-28T05:24:07.767Z,6.53
2022-09-28T05:26:34.868Z,6.53
2022-09-28T05:29:01.847Z,6.53
2022-09-28T05:31:29.028Z,6.52
2022-09-28T05:33:56.140Z,6.52
2022-09-28T05:36:23.943Z,6.54
2022-09-28T05:38:51.255Z,6.51
2022-09-28T05:41:18.175Z,6.54
2022-09-28T05:43:45.751Z,6.51
2022-09-28T05:46:12.773Z,6.52
2022-09-28T05:48:39.598Z,6.51
2022-09-28T05:51:06.966Z,6.50
2022-09-28T05:53:33.836Z,6.49
2022-09-28T05:56:01.123Z,6.51
2022-09-28T05:58:28.455Z,6.52
2022-09-28T06:00:56.689Z,6.51
2022-09-28T06:03:24.281Z,6.51
2022-09-28T06:05:51.260Z,6.48
2022-09-28T06:08:18.323Z,6.48
2022-09-28T06:10:45.275Z,6.46
2022-09-28T06:13:12.418Z,6.45
2022-09-28T06:15:42.703Z,6.45
2022-09-28T06:18:14.875Z,6.43
2022-09-28T06:20:42.171Z,6.43
2022-09-28T06:23:10.491Z,6.45
2022-09-28T06:25:37.805Z,6.45
2022-09-28T06:28:07.004Z,6.44
2022-09-28T06:30:38.245Z,6.44
2022-09-28T06:33:07.859Z,6.44
2022-09-28T06:35:35.457Z,6.43
2022-09-28T06:38:02.957Z,6.41
2022-09-28T06:40:30.464Z,6.41
2022-09-28T06:43:03.219Z,6.42
2022-09-28T06:45:30.574Z,6.41
2022-09-28T06:48:01.425Z,6.43
2022-09-28T06:50:34.313Z,6.46
2022-09-28T06:53:01.678Z,6.44
2022-09-28T06:55:29.156Z,6.46
2022-09-28T06:58:01.230Z,6.48
2022-09-28T07:00:31.180Z,6.47
2022-09-28T07:02:57.962Z,6.43
2022-09-28T07:05:27.504Z,6.45
2022-09-28T07:07:57.463Z,6.44
2022-09-28T07:10:27.805Z,6.50
2022-09-28T07:12:56.892Z,6.48
2022-09-28T07:15:24.993Z,6.51
2022-09-28T07:18:03.319Z,6.51
2022-09-28T07:20:39.222Z,6.52
2022-09-28T07:23:19.385Z,6.50
2022-09-28T07:25:50.286Z,6.51
2022-09-28T07:28:17.501Z,6.55
2022-09-28T07:30:44.773Z,6.54
2022-09-28T07:33:14.608Z,6.55
2022-09-28T07:35:43.050Z,6.57
2022-09-28T07:38:10.929Z,6.60
2022-09-28T07:40:56.268Z,6.60
2022-09-28T07:43:23.348Z,6.61
2022-09-28T07:45:56.995Z,6.62
2022-09-28T07:48:23.961Z,6.63
2022-09-28T07:50:56.890Z,6.64
2022-09-28T07:53:25.538Z,6.65
2022-09-28T07:55:53.095Z,6.64
2022-09-28T07:58:20.837Z,6.67
2022-09-28T08:00:49.413Z,6.71
2022-09-28T08:03:17.522Z,6.73
2022-09-28T08:05:46.971Z,6.74
2022-09-28T08:08:15.127Z,6.76
2022-09-28T08:10:46.944Z,6.78
2022-09-28T08:13:15.221Z,6.78
2022-09-28T08:15:42.628Z,6.80
2022-09-28T08:18:10.162Z,6.84
2022-09-28T08:20:56.036Z,6.85
2022-09-28T08:23:23.619Z,6.86
2022-09-28T08:25:54.224Z,6.89
2022-09-28T08:28:22.673Z,6.92
2022-09-28T08:30:50.234Z,6.90
2022-09-28T08:33:20.370Z,6.95
2022-09-28T08:35:48.290Z,6.96
2022-09-28T08:38:15.443Z,6.98
2022-09-28T08:41:00.527Z,7.00
2022-09-28T08:43:55.919Z,7.02
2022-09-28T08:46:27.220Z,7.04
2022-09-28T08:49:30.642Z,7.05
2022-09-28T08:52:03.582Z,7.07
2022-09-28T08:54:54.562Z,7.09
2022-09-28T08:57:27.631Z,7.11
2022-09-28T08:59:57.088Z,7.12
2022-09-28T09:02:29.158Z,7.13
2022-09-28T09:04:57.990Z,7.14
2022-09-28T09:07:43.393Z,7.17
2022-09-28T09:10:42.682Z,7.19
2022-09-28T09:13:37.713Z,7.21
2022-09-28T09:16:23.224Z,7.22
2022-09-28T09:19:25.390Z,7.26
2022-09-28T09:22:03.149Z,7.29
2022-09-28T09:24:30.543Z,7.30
2022-09-28T09:27:06.648Z,7.34
2022-09-28T09:29:51.681Z,7.38
2022-09-28T09:32:41.329Z,7.40
2022-09-28T09:35:37.530Z,7.41
2022-09-28T09:38:19.455Z,7.44
2022-09-28T09:41:09.693Z,7.47
2022-09-28T09:44:02.059Z,7.51
2022-09-28T09:46:39.673Z,7.56
2022-09-28T09:49:28.691Z,7.59
2022-09-28T09:52:27.025Z,7.62
2022-09-28T09:55:02.422Z,7.67
2022-09-28T09:57:42.893Z,7.70
2022-09-28T10:00:14.981Z,7.74
2022-09-28T10:02:44.790Z,7.76
2022-09-28T10:05:11.635Z,7.78
2022-09-28T10:07:49.642Z,7.80
2022-09-28T10:10:25.505Z,7.86
2022-09-28T10:12:53.216Z,7.89
2022-09-28T10:15:25.142Z,7.93
2022-09-28T10:17:58.418Z,7.97
2022-09-28T10:20:25.638Z,8.00
2022-09-28T10:22:56.179Z,8.02
2022-09-28T10:25:24.309Z,8.08
2022-09-28T10:27:52.662Z,8.12
2022-09-28T10:30:25.407Z,8.14
2022-09-28T10:32:59.094Z,8.22
2022-09-28T10:35:31.242Z,8.23
2022-09-28T10:37:59.946Z,8.27
2022-09-28T10:40:30.236Z,8.31
2022-09-28T10:43:07.180Z,8.36
2022-09-28T10:45:36.994Z,8.42
2022-09-28T10:48:13.615Z,8.44
2022-09-28T10:50:41.397Z,8.45
2022-09-28T10:53:22.074Z,8.50
2022-09-28T10:55:59.346Z,8.52
2022-09-28T10:58:29.989Z,8.53
2022-09-28T11:01:03.666Z,8.58
2022-09-28T11:03:31.615Z,8.59
2022-09-28T11:06:03.253Z,8.63
2022-09-28T11:08:44.550Z,8.66
2022-09-28T11:11:17.105Z,8.67
2022-09-28T11:13:47.528Z,8.70
2022-09-28T11:16:20.075Z,8.73
2022-09-28T11:18:47.334Z,8.73
2022-09-28T11:21:17.182Z,8.78
2022-09-28T11:24:19.474Z,8.80
2022-09-28T11:26:49.842Z,8.81
2022-09-28T11:29:22.236Z,8.81
2022-09-28T11:31:49.555Z,8.83
2022-09-28T11:34:47.825Z,8.88
2022-09-28T11:37:33.709Z,8.89
2022-09-28T11:40:45.356Z,8.90
2022-09-28T11:43:16.805Z,8.90
2022-09-28T11:45:51.905Z,8.91
2022-09-28T11:48:24.602Z,8.92
2022-09-28T11:51:06.074Z,8.91
2022-09-28T11:54:14.433Z,8.97
2022-09-28T11:56:48.712Z,9.01
2022-09-28T11:59:33.294Z,9.04
2022-09-28T12:02:23.383Z,9.06
2022-09-28T12:05:15.832Z,9.09
2022-09-28T12:07:54.659Z,9.11
2022-09-28T12:10:28.193Z,9.13
2022-09-28T12:13:08.232Z,9.16
2022-09-28T12:16:22.967Z,9.18
2022-09-28T12:18:36.752Z,9.23
2022-09-28T12:21:14.713Z,9.25
2022-09-28T12:23:43.532Z,9.29
2022-09-28T12:26:37.201Z,9.32
2022-09-28T12:29:13.599Z,9.34
2022-09-28T12:32:07.432Z,9.35
2022-09-28T12:34:34.236Z,9.36
2022-09-28T12:37:29.955Z,9.39
2022-09-28T12:40:09.159Z,9.41
2022-09-28T12:42:55.429Z,9.43
2022-09-28T12:45:28.622Z,9.42
2022-09-28T12:48:17.208Z,9.45
2022-09-28T12:50:57.523Z,9.44
2022-09-28T12:53:43.477Z,9.45
2022-09-28T12:56:24.938Z,9.46
2022-09-28T12:59:06.914Z,9.48
2022-09-28T13:02:14.110Z,9.48
2022-09-28T13:04:53.124Z,9.49
2022-09-28T13:07:29.239Z,9.51
2022-09-28T13:10:16.767Z,9.51
2022-09-28T13:13:16.010Z,9.52
2022-09-28T13:15:46.481Z,9.52
2022-09-28T13:18:42.222Z,9.54
2022-09-28T13:21:28.263Z,9.53
2022-09-28T13:24:14.507Z,9.55
2022-09-28T13:26:47.907Z,9.59
2022-09-28T13:29:19.053Z,9.60
2022-09-28T13:31:50.617Z,9.65
2022-09-28T13:34:29.664Z,9.68
2022-09-28T13:37:16.868Z,9.71
2022-09-28T13:40:06.183Z,9.75
2022-09-28T13:42:45.117Z,9.78
2022-09-28T13:45:30.719Z,9.79
2022-09-28T13:48:11.622Z,9.81
2022-09-28T13:50:44.472Z,9.84
2022-09-28T13:53:29.539Z,9.89
2022-09-28T13:56:03.918Z,9.93
2022-09-28T13:58:44.282Z,9.96
2022-09-28T14:01:30.505Z,9.99
2022-09-28T14:04:20.522Z,10.02
2022-09-28T14:07:10.618Z,10.04
2022-09-28T14:10:02.673Z,10.06
2022-09-28T14:12:35.496Z,10.12
2022-09-28T14:15:26.488Z,10.16
2022-09-28T14:18:10.149Z,10.20
2022-09-28T14:20:37.388Z,10.21
2022-09-28T14:23:34.690Z,10.21
2022-09-28T14:26:41.788Z,10.24
2022-09-28T14:29:39.167Z,10.25
2022-09-28T14:32:23.945Z,10.24
2022-09-28T14:35:04.705Z,10.27
2022-09-28T14:37:52.565Z,10.25
2022-09-28T14:40:42.892Z,10.26
2022-09-28T14:43:27.013Z,10.28
2022-09-28T14:46:14.414Z,10.28
2022-09-28T14:48:50.835Z,10.27
2022-09-28T14:51:26.881Z,10.28
2022-09-28T14:54:00.311Z,10.29
2022-09-28T14:56:34.213Z,10.31
2022-09-28T14:59:01.339Z,10.32
2022-09-28T15:01:28.260Z,10.33
2022-09-28T15:03:59.491Z,10.34
2022-09-28T15:06:29.585Z,10.31
2022-09-28T15:08:56.501Z,10.32
2022-09-28T15:11:26.287Z,10.32
2022-09-28T15:14:07.249Z,10.29
2022-09-28T15:16:34.151Z,10.30
2022-09-28T15:19:01.458Z,10.27
2022-09-28T15:21:34.501Z,10.26
2022-09-28T15:24:01.638Z,10.22
2022-09-28T15:26:33.195Z,10.20
2022-09-28T15:29:03.480Z,10.15
2022-09-28T15:31:35.618Z,10.13
2022-09-28T15:34:21.007Z,10.08
2022-09-28T15:36:48.089Z,10.08
2022-09-28T15:39:34.859Z,10.03
2022-09-28T15:42:02.248Z,9.95
2022-09-28T15:44:37.391Z,9.95
2022-09-28T15:47:08.498Z,9.92
2022-09-28T15:49:41.367Z,9.85
2022-09-28T15:52:23.948Z,9.77
2022-09-28T15:54:51.146Z,9.78
2022-09-28T15:57:35.883Z,9.70
2022-09-28T16:00:25.347Z,9.66
2022-09-28T16:03:00.441Z,9.60
2022-09-28T16:05:40.974Z,9.56
2022-09-28T16:08:34.308Z,9.50
2022-09-28T16:11:17.110Z,9.44
2022-09-28T16:14:01.747Z,9.39
2022-09-28T16:16:46.724Z,9.35
2022-09-28T16:19:26.114Z,9.29
2022-09-28T16:21:55.939Z,9.27
2022-09-28T16:24:30.399Z,9.19
2022-09-28T16:27:03.750Z,9.16
2022-09-28T16:29:40.200Z,9.12
2022-09-28T16:32:25.492Z,9.10
2022-09-28T16:35:13.673Z,9.06
2022-09-28T16:37:42.782Z,9.04
2022-09-28T16:40:10.911Z,8.99
2022-09-28T16:42:48.074Z,8.96
2022-09-28T16:45:25.955Z,8.94
2022-09-28T16:47:56.464Z,8.90
2022-09-28T16:50:24.557Z,8.88
2022-09-28T16:53:31.565Z,8.83
2022-09-28T16:55:59.939Z,8.79
2022-09-28T16:58:27.874Z,8.75
2022-09-28T17:00:55.672Z,8.76
2022-09-28T17:03:25.752Z,8.75
2022-09-28T17:05:53.654Z,8.73
2022-09-28T17:08:22.456Z,8.71
2022-09-28T17:11:22.785Z,8.67
2022-09-28T17:13:49.241Z,8.67
2022-09-28T17:19:23.345Z,8.62
2022-09-28T17:21:51.855Z,8.62
2022-09-28T17:24:20.110Z,8.61
2022-09-28T17:26:50.330Z,8.60
2022-09-28T17:29:17.725Z,8.50
2022-09-28T17:31:46.095Z,8.56
2022-09-28T17:34:16.312Z,8.55
2022-09-28T17:36:44.274Z,8.51
2022-09-28T17:39:16.592Z,8.49
2022-09-28T17:41:43.607Z,8.47
2022-09-28T17:44:11.101Z,8.47
2022-09-28T17:46:40.825Z,8.47
2022-09-28T17:49:11.598Z,8.45
2022-09-28T17:51:38.720Z,8.45
2022-09-28T17:54:08.199Z,8.45
2022-09-28T17:56:36.024Z,8.41
2022-09-28T17:59:06.712Z,8.40
2022-09-28T18:01:34.833Z,8.39
2022-09-28T18:04:04.979Z,8.36
2022-09-28T18:06:33.788Z,8.37
2022-09-28T18:09:03.221Z,8.33
2022-09-28T18:11:32.139Z,8.32
2022-09-28T18:13:59.128Z,8.26
2022-09-28T18:16:27.998Z,8.23
2022-09-28T18:18:55.103Z,8.24
2022-09-28T18:21:22.063Z,8.18
2022-09-28T18:23:49.126Z,8.21
2022-09-28T18:26:18.994Z,8.19
2022-09-28T18:28:46.534Z,8.19
2022-09-28T18:31:15.412Z,8.15
2022-09-28T18:33:43.378Z,8.12
2022-09-28T18:36:10.386Z,8.05
2022-09-28T18:38:38.277Z,8.04
2022-09-28T18:41:16.854Z,8.00
2022-09-28T18:43:51.515Z,7.97
2022-09-28T18:46:18.765Z,7.89
2022-09-28T18:48:47.735Z,7.91
2022-09-28T18:51:14.923Z,7.86
2022-09-28T18:53:41.844Z,7.83
2022-09-28T18:56:13.029Z,7.80
2022-09-28T18:58:41.633Z,7.77
2022-09-28T19:01:29.355Z,7.74
2022-09-28T19:04:06.260Z,7.70
2022-09-28T19:06:34.405Z,7.66
2022-09-28T19:09:01.817Z,7.64
2022-09-28T19:11:28.839Z,7.58
2022-09-28T19:13:56.571Z,7.54
2022-09-28T19:16:28.758Z,7.49
2022-09-28T19:18:57.560Z,7.50
2022-09-28T19:21:25.614Z,7.47
2022-09-28T19:23:55.110Z,7.41
2022-09-28T19:26:27.444Z,7.44
2022-09-28T19:28:56.228Z,7.41
2022-09-28T19:31:23.830Z,7.38
2022-09-28T19:33:50.851Z,7.36
2022-09-28T19:36:21.973Z,7.35
2022-09-28T19:38:49.249Z,7.32
2022-09-28T19:41:39.503Z,7.33
2022-09-28T19:44:30.994Z,7.33
2022-09-28T19:47:07.537Z,7.31
2022-09-28T19:49:40.022Z,7.32
2022-09-28T19:52:15.945Z,7.31
2022-09-28T19:54:57.807Z,7.30
2022-09-28T19:57:30.270Z,7.28
2022-09-28T20:00:02.086Z,7.26
2022-09-28T20:02:30.079Z,7.23
2022-09-28T20:04:57.165Z,7.25
2022-09-28T20:07:24.226Z,7.22
2022-09-28T20:09:51.753Z,7.24
2022-09-28T20:12:18.885Z,7.19
2022-09-28T20:14:45.889Z,7.20
2022-09-28T20:17:12.950Z,7.18
2022-09-28T20:19:39.890Z,7.16
2022-09-28T20:22:06.834Z,7.15
2022-09-28T20:24:33.969Z,7.13
2022-09-28T20:27:01.607Z,7.09
2022-09-28T20:29:31.700Z,7.09
2022-09-28T20:31:59.091Z,7.03
2022-09-28T20:34:26.162Z,7.02
2022-09-28T20:36:53.116Z,7.01
2022-09-28T20:39:20.834Z,7.00
2022-09-28T20:41:49.110Z,6.96
2022-09-28T20:44:16.495Z,6.93
2022-09-28T20:46:46.472Z,6.93
2022-09-28T20:49:13.486Z,6.88
2022-09-28T20:51:40.342Z,6.90
2022-09-28T20:54:07.449Z,6.88
2022-09-28T20:56:39.026Z,6.87
2022-09-28T20:59:11.899Z,6.86
2022-09-28T21:01:39.207Z,6.84
2022-09-28T21:04:08.666Z,6.84
2022-09-28T21:06:38.170Z,6.83
2022-09-28T21:09:07.183Z,6.81
2022-09-28T21:11:37.618Z,6.73
2022-09-28T21:14:10.641Z,6.78
2022-09-28T21:16:38.896Z,6.78
2022-09-28T21:19:08.461Z,6.77
2022-09-28T21:21:37.070Z,6.76
2022-09-28T21:24:06.508Z,6.71
2022-09-28T21:26:33.675Z,6.72
2022-09-28T21:29:11.875Z,6.69
2022-09-28T21:34:27.451Z,6.64
2022-09-28T21:37:04.561Z,6.64
2022-09-28T21:39:33.404Z,6.63
2022-09-28T21:42:01.753Z,6.58
2022-09-28T21:44:28.714Z,6.57
2022-09-28T21:46:56.618Z,6.53
2022-09-28T21:49:25.447Z,6.55
2022-09-28T21:51:57.609Z,6.51
2022-09-28T21:54:28.866Z,6.48
2022-09-28T21:57:06.719Z,6.48
2022-09-28T21:59:36.941Z,6.46
2022-09-28T22:02:15.071Z,6.41
2022-09-28T22:04:42.229Z,6.38
2022-09-28T22:07:15.056Z,6.38
2022-09-28T22:09:52.770Z,6.34
2022-09-28T22:12:22.547Z,6.33
2022-09-28T22:14:57.420Z,6.32
2022-09-28T22:17:24.568Z,6.22
2022-09-28T22:19:54.227Z,6.29
2022-09-28T22:22:25.206Z,6.28
2022-09-28T22:24:57.446Z,6.23
2022-09-28T22:27:24.555Z,6.18
2022-09-28T22:29:52.992Z,6.19
2022-09-28T22:32:21.971Z,6.23
2022-09-28T22:34:50.566Z,6.22
2022-09-28T22:37:20.202Z,6.22
2022-09-28T22:39:54.605Z,6.22
2022-09-28T22:42:27.677Z,6.21
2022-09-28T22:44:55.522Z,6.20
2022-09-28T22:47:34.360Z,6.18
2022-09-28T22:50:02.168Z,6.17
2022-09-28T22:52:34.800Z,6.14
2022-09-28T22:55:06.155Z,6.14
2022-09-28T22:57:40.968Z,6.12
2022-09-28T23:00:10.339Z,6.10
2022-09-28T23:02:45.866Z,6.09
2022-09-28T23:05:14.723Z,6.10
2022-09-28T23:07:47.976Z,6.05
2022-09-28T23:10:18.435Z,6.08
2022-09-28T23:13:02.565Z,6.08
2022-09-28T23:15:35.023Z,6.08
2022-09-28T23:18:02.133Z,6.03
2022-09-28T23:20:29.034Z,6.06
2022-09-28T23:23:02.887Z,6.07
2022-09-28T23:25:29.762Z,6.06
2022-09-28T23:27:56.662Z,6.06
2022-09-28T23:30:26.220Z,6.06
2022-09-28T23:32:55.019Z,6.06
2022-09-28T23:35:24.536Z,6.07
2022-09-28T23:37:52.568Z,6.06
2022-09-28T23:40:19.509Z,6.06
2022-09-28T23:42:50.233Z,6.06
2022-09-28T23:45:21.692Z,6.04
2022-09-28T23:48:03.885Z,6.04
2022-09-28T23:50:30.765Z,6.03
2022-09-28T23:52:58.460Z,6.03
2022-09-28T23:55:29.001Z,6.02
2022-09-28T23:58:01.101Z,6.03
